Time;durP1;ratioP1;P1;durP2;ratioP2;P2;SDS_P1;SDS_P2;PMS_P1;PMS_P2;Temp;Humidity;BMP_temperature;BMP_pressure;BME280_temperature;BME280_humidity;BME280_pressure;Samples;Min_cycle;Max_cycle;Signal;HPM_P1;HPM_P2
2023/07/19 00:01:23;;;;;;;39.88;36.72;;;18.30;45.90;;;;;;5047897;28;20373;-66
2023/07/19 00:03:48;;;;;;;40.20;37.03;;;18.40;94.30;;;;;;5054621;28;20044;-66
2023/07/19 00:06:14;;;;;;;40.95;37.72;;;18.30;99.90;;;;;;5066133;28;20487;-66
2023/07/19 00:08:40;;;;;;;39.42;36.33;;;18.40;99.90;;;;;;5067697;28;20029;-66
2023/07/19 00:11:05;;;;;;;41.10;37.80;;;18.30;99.90;;;;;;5069957;28;20430;-66
2023/07/19 00:13:31;;;;;;;42.15;38.55;;;18.30;99.90;;;;;;5068975;28;20111;-66
2023/07/19 00:15:56;;;;;;;42.22;38.92;;;18.30;99.90;;;;;;5068953;28;20036;-66
2023/07/19 00:18:22;;;;;;;42.35;38.85;;;18.40;99.90;;;;;;5069043;28;20108;-66
2023/07/19 00:20:47;;;;;;;42.97;39.22;;;18.30;99.90;;;;;;5069790;28;20562;-66
2023/07/19 00:23:13;;;;;;;42.40;38.83;;;18.30;1.00;;;;;;5065885;28;20387;-66
2023/07/19 00:25:39;;;;;;;43.05;39.25;;;18.30;1.00;;;;;;5067281;28;20068;-66
2023/07/19 00:28:04;;;;;;;40.55;37.15;;;18.40;1.00;;;;;;5051502;28;20051;-66
2023/07/19 00:30:30;;;;;;;40.83;37.33;;;18.40;1.00;;;;;;5055977;28;20419;-66
2023/07/19 00:32:56;;;;;;;42.00;38.40;;;18.40;43.00;;;;;;5061507;28;20123;-66
2023/07/19 00:35:21;;;;;;;44.35;40.65;;;18.40;99.90;;;;;;5069370;28;20051;-66
2023/07/19 00:37:47;;;;;;;44.03;40.22;;;18.40;99.90;;;;;;5045823;28;20490;-66
2023/07/19 00:40:13;;;;;;;43.95;40.10;;;18.60;99.90;;;;;;5056136;28;20045;-66
2023/07/19 00:42:38;;;;;;;43.97;40.25;;;18.70;99.90;;;;;;5072886;28;20087;-66
2023/07/19 00:45:04;;;;;;;43.53;40.10;;;18.40;99.90;;;;;;5073337;28;20521;-66
2023/07/19 00:47:31;;;;;;;44.42;40.72;;;18.50;1.00;;;;;;5069448;28;20047;-66
2023/07/19 00:49:57;;;;;;;43.38;39.85;;;18.60;1.00;;;;;;5073770;28;20035;-67
2023/07/19 00:52:23;;;;;;;42.88;39.38;;;18.50;1.00;;;;;;5068486;28;20044;-66
2023/07/19 00:54:49;;;;;;;41.78;38.50;;;18.40;46.30;;;;;;5057179;28;20044;-66
2023/07/19 00:57:15;;;;;;;41.97;38.40;;;18.50;99.90;;;;;;5070926;28;20050;-66
2023/07/19 00:59:41;;;;;;;42.40;38.53;;;18.80;99.90;;;;;;5055228;28;20439;-66
2023/07/19 01:02:07;;;;;;;41.53;38.00;;;18.40;99.90;;;;;;5067070;28;20045;-66
2023/07/19 01:04:34;;;;;;;41.53;38.03;;;18.40;99.90;;;;;;5068563;28;20510;-66
2023/07/19 01:07:02;;;;;;;42.65;39.17;;;18.50;99.90;;;;;;5054758;28;20475;-67
2023/07/19 01:09:28;;;;;;;42.10;38.30;;;18.50;99.90;;;;;;5070963;28;20127;-66
2023/07/19 01:11:54;;;;;;;42.58;39.03;;;18.50;1.00;;;;;;5065675;28;20128;-66
2023/07/19 01:14:20;;;;;;;41.50;38.20;;;18.40;21.80;;;;;;5073171;28;20124;-66
2023/07/19 01:16:45;;;;;;;39.53;36.47;;;18.50;99.90;;;;;;5070741;28;20122;-66
2023/07/19 01:19:15;;;;;;;41.25;38.03;;;18.50;99.90;;;;;;5072429;28;20045;-66
2023/07/19 01:21:40;;;;;;;41.78;38.38;;;18.40;99.90;;;;;;5068623;28;20041;-66
2023/07/19 01:24:06;;;;;;;40.15;36.90;;;18.40;99.90;;;;;;5069691;28;20328;-66
2023/07/19 01:26:32;;;;;;;42.75;39.40;;;18.30;99.90;;;;;;5054032;28;20081;-66
2023/07/19 01:28:57;;;;;;;42.05;38.63;;;18.10;99.90;;;;;;5059211;28;20806;-66
2023/07/19 01:31:23;;;;;;;42.70;39.05;;;18.10;99.90;;;;;;5069275;28;20028;-66
2023/07/19 01:33:48;;;;;;;44.65;41.05;;;18.00;99.90;;;;;;5061976;28;20402;-66
2023/07/19 01:36:14;;;;;;;45.05;41.20;;;18.20;99.90;;;;;;5065942;28;20103;-66
2023/07/19 01:38:41;;;;;;;43.55;40.05;;;18.20;1.00;;;;;;5053878;28;20103;-66
2023/07/19 01:41:07;;;;;;;44.35;40.53;;;18.30;20.70;;;;;;5056713;28;20120;-66
2023/07/19 01:43:34;;;;;;;43.58;39.97;;;18.30;99.90;;;;;;5069521;28;20665;-66
2023/07/19 01:46:00;;;;;;;44.20;40.50;;;18.20;99.90;;;;;;5065932;28;20124;-66
2023/07/19 01:48:25;;;;;;;42.53;39.22;;;18.30;99.90;;;;;;5071010;28;20597;-66
2023/07/19 01:50:51;;;;;;;44.80;41.17;;;18.30;1.00;;;;;;5068285;28;20032;-66
2023/07/19 01:53:16;;;;;;;43.65;39.83;;;18.10;1.00;;;;;;5051274;28;20482;-66
2023/07/19 01:55:42;;;;;;;42.78;39.28;;;18.30;1.00;;;;;;5067694;28;20390;-66
2023/07/19 01:58:09;;;;;;;44.30;40.47;;;18.10;99.90;;;;;;5053316;28;20069;-66
2023/07/19 02:00:34;;;;;;;45.63;41.60;;;18.10;99.90;;;;;;5052612;28;20057;-65
2023/07/19 02:03:00;;;;;;;44.38;40.80;;;18.10;99.90;;;;;;5062670;28;20033;-66
2023/07/19 02:05:26;;;;;;;43.83;40.10;;;18.10;99.90;;;;;;5067110;28;20033;-66
2023/07/19 02:07:52;;;;;;;44.67;41.10;;;18.20;99.90;;;;;;5042294;28;20490;-66
2023/07/19 02:10:18;;;;;;;44.42;40.75;;;18.10;1.00;;;;;;5070403;28;20051;-66
2023/07/19 02:12:43;;;;;;;43.13;39.60;;;18.10;1.00;;;;;;5060633;28;20078;-66
2023/07/19 02:15:09;;;;;;;44.30;40.60;;;18.30;1.00;;;;;;5066667;28;20041;-66
2023/07/19 02:17:36;;;;;;;43.20;39.55;;;18.20;94.10;;;;;;5067175;28;20047;-66
2023/07/19 02:20:02;;;;;;;42.08;38.67;;;18.30;99.90;;;;;;5067765;28;20036;-66
2023/07/19 02:22:27;;;;;;;42.20;38.90;;;18.40;99.90;;;;;;5047564;28;20060;-66
2023/07/19 02:24:53;;;;;;;42.85;39.35;;;18.20;99.90;;;;;;5050648;28;20044;-66
2023/07/19 02:27:19;;;;;;;42.55;39.25;;;18.20;99.90;;;;;;5049389;28;20086;-66
2023/07/19 02:29:44;;;;;;;43.00;39.17;;;18.20;99.90;;;;;;5066165;28;20036;-66
2023/07/19 02:32:10;;;;;;;42.53;39.13;;;18.20;99.90;;;;;;5048777;28;20075;-66
2023/07/19 02:34:36;;;;;;;41.80;38.40;;;18.30;99.90;;;;;;5071675;28;20037;-66
2023/07/19 02:37:01;;;;;;;41.17;37.83;;;18.30;99.90;;;;;;5066144;28;20052;-66
2023/07/19 02:39:29;;;;;;;38.20;35.20;;;18.30;99.90;;;;;;5034742;28;20045;-66
2023/07/19 02:41:55;;;;;;;33.58;30.80;;;18.30;99.90;;;;;;5055842;28;20060;-66
2023/07/19 02:44:21;;;;;;;28.95;26.35;;;18.30;99.90;;;;;;5052134;28;20045;-66
2023/07/19 02:46:47;;;;;;;27.33;25.02;;;18.30;99.90;;;;;;5058946;28;20037;-66
2023/07/19 02:49:13;;;;;;;31.10;28.33;;;18.40;99.90;;;;;;5071463;28;20024;-66
2023/07/19 02:51:38;;;;;;;29.80;27.08;;;18.30;86.40;;;;;;5065899;28;20076;-66
2023/07/19 02:54:04;;;;;;;31.45;28.73;;;18.40;1.00;;;;;;5068532;28;20434;-66
2023/07/19 02:56:29;;;;;;;29.05;26.48;;;18.40;99.90;;;;;;5052151;28;20037;-66
2023/07/19 02:58:55;;;;;;;28.33;25.83;;;18.50;99.90;;;;;;5050828;28;20057;-66
2023/07/19 03:01:21;;;;;;;27.38;25.08;;;18.40;99.90;;;;;;5053659;28;20102;-65
2023/07/19 03:03:46;;;;;;;24.23;22.15;;;18.60;1.00;;;;;;5070943;28;20047;-66
2023/07/19 03:06:12;;;;;;;22.67;20.58;;;18.50;99.90;;;;;;5066629;28;20033;-66
2023/07/19 03:08:38;;;;;;;20.60;19.00;;;18.50;1.00;;;;;;5069253;28;20048;-66
2023/07/19 03:11:05;;;;;;;19.80;18.20;;;18.50;99.90;;;;;;5049166;28;20466;-66
2023/07/19 03:13:31;;;;;;;18.00;16.48;;;18.50;99.90;;;;;;5056372;28;20043;-66
2023/07/19 03:15:57;;;;;;;20.35;18.85;;;18.60;99.90;;;;;;5062319;28;20462;-66
2023/07/19 03:18:23;;;;;;;19.63;18.02;;;18.60;1.00;;;;;;5075863;28;20141;-66
2023/07/19 03:20:56;;;;;;;21.73;19.92;;;18.50;99.90;;;;;;5052485;28;20040;-66
2023/07/19 03:23:22;;;;;;;21.42;19.83;;;18.50;99.90;;;;;;5051134;28;20033;-66
2023/07/19 03:25:47;;;;;;;22.52;20.77;;;18.40;1.00;;;;;;5052206;28;20421;-66
2023/07/19 03:28:13;;;;;;;24.77;22.88;;;18.40;1.00;;;;;;5035611;28;20041;-66
2023/07/19 03:30:38;;;;;;;25.45;23.50;;;18.40;1.00;;;;;;5057178;28;20034;-66
2023/07/19 03:33:04;;;;;;;22.10;20.40;;;18.40;1.00;;;;;;5054777;28;20041;-66
2023/07/19 03:35:29;;;;;;;22.42;20.15;;;18.40;99.90;;;;;;5050564;28;20043;-66
2023/07/19 03:37:55;;;;;;;19.83;18.27;;;18.40;99.90;;;;;;5051564;28;20094;-66
2023/07/19 03:40:21;;;;;;;23.90;22.10;;;18.50;99.90;;;;;;5057705;28;20116;-66
2023/07/19 03:42:46;;;;;;;24.20;22.20;;;18.50;99.90;;;;;;5049935;28;20502;-66
2023/07/19 03:45:12;;;;;;;27.60;25.05;;;18.40;99.90;;;;;;5070495;28;20032;-66
2023/07/19 03:47:39;;;;;;;29.80;26.88;;;18.50;99.90;;;;;;5068288;28;20044;-66
2023/07/19 03:50:05;;;;;;;28.60;26.13;;;18.50;99.90;;;;;;5065050;28;20037;-66
2023/07/19 03:52:31;;;;;;;29.80;27.17;;;18.40;99.90;;;;;;5071403;28;20111;-66
2023/07/19 03:54:56;;;;;;;28.85;26.45;;;18.40;99.90;;;;;;5054488;28;20116;-66
2023/07/19 03:57:22;;;;;;;28.65;26.35;;;18.20;99.90;;;;;;5059052;28;20071;-66
2023/07/19 03:59:48;;;;;;;29.23;26.40;;;18.40;99.90;;;;;;5068516;28;20040;-66
2023/07/19 04:02:14;;;;;;;27.35;25.10;;;18.40;99.90;;;;;;5057541;28;20136;-66
2023/07/19 04:04:39;;;;;;;28.80;26.27;;;18.30;1.00;;;;;;5065049;28;20131;-66
2023/07/19 04:07:05;;;;;;;27.38;25.30;;;18.40;1.00;;;;;;5065661;28;20078;-66
2023/07/19 04:09:30;;;;;;;27.92;25.42;;;18.40;1.00;;;;;;5052086;28;20524;-66
2023/07/19 04:11:56;;;;;;;26.20;24.17;;;18.40;1.00;;;;;;5066020;28;20804;-66
2023/07/19 04:14:22;;;;;;;26.10;24.02;;;18.50;1.00;;;;;;5060422;28;20040;-66
2023/07/19 04:16:47;;;;;;;28.98;26.38;;;18.40;1.00;;;;;;5055226;28;20542;-66
2023/07/19 04:19:13;;;;;;;28.52;26.17;;;18.50;99.90;;;;;;5050503;28;20047;-66
2023/07/19 04:21:38;;;;;;;28.88;26.52;;;18.50;1.00;;;;;;5068509;28;20170;-66
2023/07/19 04:24:04;;;;;;;29.35;26.85;;;18.60;1.00;;;;;;5050949;28;20094;-66
2023/07/19 04:26:29;;;;;;;32.58;29.38;;;18.60;1.00;;;;;;5062484;28;20025;-66
2023/07/19 04:28:57;;;;;;;32.05;29.08;;;18.60;1.00;;;;;;5052088;28;20491;-65
2023/07/19 04:31:23;;;;;;;33.00;30.15;;;18.70;1.00;;;;;;5055483;28;20032;-66
2023/07/19 04:33:48;;;;;;;31.58;28.98;;;18.50;1.00;;;;;;5032469;28;20461;-66
2023/07/19 04:36:15;;;;;;;31.85;29.13;;;18.50;20.50;;;;;;5052132;28;20039;-66
2023/07/19 04:38:41;;;;;;;31.63;28.92;;;18.60;71.50;;;;;;5066805;28;20574;-66
2023/07/19 04:41:08;;;;;;;34.53;31.48;;;18.50;92.70;;;;;;5066527;28;20090;-66
2023/07/19 04:43:33;;;;;;;34.70;31.83;;;18.50;99.90;;;;;;5057553;28;20041;-66
2023/07/19 04:45:59;;;;;;;34.72;31.70;;;18.50;99.90;;;;;;5052863;28;20098;-66
2023/07/19 04:48:25;;;;;;;36.53;33.15;;;18.40;99.90;;;;;;5066746;28;20040;-66
2023/07/19 04:50:58;;;;;;;34.67;31.60;;;18.50;99.90;;;;;;5072669;28;20074;-66
2023/07/19 04:53:25;;;;;;;34.25;31.33;;;18.30;99.90;;;;;;5062171;28;20036;-66
2023/07/19 04:55:52;;;;;;;34.00;31.30;;;18.30;99.90;;;;;;5067839;28;20048;-66
2023/07/19 04:58:18;;;;;;;34.28;31.58;;;18.20;1.00;;;;;;5032582;28;20049;-66
2023/07/19 05:00:44;;;;;;;35.00;32.25;;;18.30;1.00;;;;;;5066841;28;20530;-66
2023/07/19 05:03:10;;;;;;;34.42;31.77;;;18.20;1.00;;;;;;5067052;28;20451;-66
2023/07/19 05:05:36;;;;;;;33.50;30.80;;;18.20;41.70;;;;;;5069360;28;20081;-66
2023/07/19 05:08:04;;;;;;;34.40;31.77;;;18.20;99.90;;;;;;5050908;28;20471;-66
2023/07/19 05:10:30;;;;;;;34.72;31.90;;;18.30;99.90;;;;;;5064629;28;20498;-66
2023/07/19 05:12:55;;;;;;;35.90;32.90;;;18.20;99.90;;;;;;5052036;28;20109;-66
2023/07/19 05:15:21;;;;;;;35.08;32.33;;;18.20;99.90;;;;;;5067326;28;20041;-66
2023/07/19 05:17:47;;;;;;;37.47;34.35;;;18.30;99.90;;;;;;5048046;28;20549;-66
2023/07/19 05:20:13;;;;;;;36.10;33.17;;;18.30;1.00;;;;;;5073117;28;20082;-66
2023/07/19 05:22:38;;;;;;;36.63;33.83;;;18.40;1.00;;;;;;5062413;28;20041;-66
2023/07/19 05:25:04;;;;;;;34.90;32.28;;;18.50;1.00;;;;;;5057339;28;20044;-66
2023/07/19 05:27:30;;;;;;;34.85;32.15;;;18.40;21.40;;;;;;5062743;28;20072;-67
2023/07/19 05:29:56;;;;;;;33.47;30.58;;;18.60;68.40;;;;;;5065975;28;20057;-66
2023/07/19 05:32:21;;;;;;;31.02;28.67;;;18.60;99.30;;;;;;5063875;28;20073;-66
2023/07/19 05:34:47;;;;;;;32.15;29.65;;;18.50;90.90;;;;;;5068021;28;20040;-66
2023/07/19 05:37:12;;;;;;;30.52;28.17;;;18.60;25.70;;;;;;5063535;28;20044;-66
2023/07/19 05:39:38;;;;;;;31.05;28.75;;;18.50;1.00;;;;;;5065946;28;20509;-66
2023/07/19 05:42:05;;;;;;;31.05;28.70;;;18.60;1.00;;;;;;5045285;28;20041;-66
2023/07/19 05:44:30;;;;;;;31.70;29.17;;;18.50;1.00;;;;;;5067771;28;20040;-66
2023/07/19 05:46:56;;;;;;;31.02;28.63;;;18.60;99.90;;;;;;5045415;28;20044;-66
2023/07/19 05:49:22;;;;;;;28.92;26.80;;;18.50;99.90;;;;;;5065301;28;20135;-66
2023/07/19 05:51:47;;;;;;;30.15;27.98;;;18.50;99.90;;;;;;5062485;28;20097;-69
2023/07/19 05:54:13;;;;;;;30.90;28.48;;;18.60;99.90;;;;;;5071676;28;20047;-67
2023/07/19 05:56:39;;;;;;;28.55;26.35;;;18.70;99.90;;;;;;5047048;28;20053;-67
2023/07/19 05:59:05;;;;;;;29.40;27.20;;;18.70;91.80;;;;;;5067264;28;20491;-67
2023/07/19 06:01:31;;;;;;;29.75;27.45;;;19.10;29.90;;;;;;5072320;28;20070;-67
2023/07/19 06:03:56;;;;;;;30.20;27.85;;;18.60;1.00;;;;;;5069345;28;20628;-67
2023/07/19 06:06:22;;;;;;;29.80;27.55;;;18.70;1.00;;;;;;5068562;28;20041;-67
2023/07/19 06:08:48;;;;;;;27.38;25.38;;;18.70;1.00;;;;;;5062890;28;20042;-67
2023/07/19 06:11:13;;;;;;;29.10;26.90;;;18.80;1.00;;;;;;5069795;28;20048;-67
2023/07/19 06:13:39;;;;;;;27.92;25.80;;;18.90;1.00;;;;;;5057305;28;20514;-69
2023/07/19 06:16:04;;;;;;;25.40;23.38;;;18.90;1.00;;;;;;5027179;28;20051;-70
2023/07/19 06:18:30;;;;;;;27.50;25.40;;;19.00;1.00;;;;;;5041581;28;20533;-66
2023/07/19 06:20:56;;;;;;;27.33;24.95;;;19.00;1.00;;;;;;5067840;28;20044;-66
2023/07/19 06:23:22;;;;;;;28.25;26.05;;;19.10;1.00;;;;;;5060176;28;20046;-65
2023/07/19 06:25:48;;;;;;;29.30;26.90;;;19.20;99.90;;;;;;5060393;28;20629;-65
2023/07/19 06:28:14;;;;;;;29.50;26.98;;;19.20;99.90;;;;;;5064229;28;20040;-66
2023/07/19 06:30:41;;;;;;;30.45;27.67;;;19.20;99.90;;;;;;5068449;28;20115;-66
2023/07/19 06:33:06;;;;;;;27.75;25.55;;;19.30;99.90;;;;;;5062676;28;20116;-66
2023/07/19 06:35:33;;;;;;;28.23;25.60;;;19.50;99.90;;;;;;5066680;28;20108;-66
2023/07/19 06:37:59;;;;;;;27.08;25.05;;;19.40;99.90;;;;;;5065699;28;20048;-65
2023/07/19 06:40:26;;;;;;;26.65;24.58;;;19.50;99.90;;;;;;5066839;28;20422;-66
2023/07/19 06:42:52;;;;;;;27.88;25.75;;;19.60;99.90;;;;;;5038703;28;20060;-70
2023/07/19 06:45:18;;;;;;;27.92;25.60;;;19.50;99.90;;;;;;5068657;28;20029;-70
2023/07/19 06:47:44;;;;;;;27.45;24.83;;;19.60;99.90;;;;;;5068123;28;20037;-68
2023/07/19 06:50:10;;;;;;;27.08;24.95;;;19.80;99.90;;;;;;5063247;28;20033;-70
2023/07/19 06:52:36;;;;;;;27.73;25.40;;;19.70;99.90;;;;;;5063297;28;20391;-70
2023/07/19 06:55:03;;;;;;;26.05;23.92;;;19.80;99.90;;;;;;5066434;28;20045;-66
2023/07/19 06:57:28;;;;;;;25.30;23.40;;;19.80;99.90;;;;;;5061491;28;20075;-65
2023/07/19 06:59:54;;;;;;;25.92;23.83;;;19.90;9.90;;;;;;5060074;28;20096;-70
2023/07/19 07:02:20;;;;;;;22.20;20.40;;;19.90;1.00;;;;;;5059072;28;20037;-69
2023/07/19 07:04:46;;;;;;;21.85;20.25;;;19.70;99.90;;;;;;5051339;28;20072;-69
2023/07/19 07:07:14;;;;;;;22.55;20.90;;;19.70;99.90;;;;;;5050782;28;20143;-69
2023/07/19 07:09:41;;;;;;;25.15;23.25;;;19.60;99.90;;;;;;5046215;28;20045;-69
2023/07/19 07:12:07;;;;;;;25.08;23.15;;;19.80;99.90;;;;;;5052507;28;20474;-69
2023/07/19 07:14:32;;;;;;;25.52;23.50;;;19.60;99.90;;;;;;5060049;28;20040;-69
2023/07/19 07:16:59;;;;;;;23.52;21.63;;;19.60;99.90;;;;;;5065100;28;20493;-69
2023/07/19 07:19:24;;;;;;;26.23;24.00;;;19.70;99.90;;;;;;5064634;28;20040;-69
2023/07/19 07:21:50;;;;;;;22.25;20.42;;;19.50;99.90;;;;;;5068056;28;20406;-69
2023/07/19 07:24:15;;;;;;;20.00;18.40;;;19.70;84.60;;;;;;5068317;28;20503;-69
2023/07/19 07:26:41;;;;;;;19.10;17.40;;;19.60;63.10;;;;;;5041911;28;20047;-69
2023/07/19 07:29:07;;;;;;;18.27;16.80;;;19.80;1.00;;;;;;5063428;28;20276;-69
2023/07/19 07:31:32;;;;;;;20.08;18.30;;;19.70;1.00;;;;;;5066199;28;20494;-69
2023/07/19 07:33:58;;;;;;;18.48;16.70;;;19.90;1.00;;;;;;5057701;28;20525;-69
2023/07/19 07:36:24;;;;;;;18.05;16.55;;;20.20;1.00;;;;;;5067680;28;20041;-69
2023/07/19 07:38:50;;;;;;;16.50;15.00;;;20.40;1.00;;;;;;5062968;28;20040;-69
2023/07/19 07:41:16;;;;;;;13.32;12.07;;;20.70;99.90;;;;;;5063321;28;20503;-69
2023/07/19 07:43:42;;;;;;;14.85;13.07;;;20.70;99.90;;;;;;5071261;28;20037;-69
2023/07/19 07:46:07;;;;;;;16.23;14.82;;;20.90;99.90;;;;;;5063549;28;20437;-69
2023/07/19 07:48:33;;;;;;;16.15;14.85;;;20.40;97.50;;;;;;5058553;28;20044;-69
2023/07/19 07:50:59;;;;;;;17.45;15.85;;;20.20;56.30;;;;;;5061457;28;20486;-69
2023/07/19 07:53:24;;;;;;;14.80;13.57;;;20.30;25.80;;;;;;5061625;28;20045;-69
2023/07/19 07:55:50;;;;;;;15.48;14.23;;;20.20;20.00;;;;;;5065731;28;20045;-69
2023/07/19 07:58:16;;;;;;;16.80;15.38;;;20.40;27.70;;;;;;5060210;28;20037;-69
2023/07/19 08:00:42;;;;;;;13.88;12.68;;;20.60;33.30;;;;;;5062633;28;20045;-69
2023/07/19 08:03:11;;;;;;;17.10;15.50;;;20.50;1.00;;;;;;5059224;28;20044;-69
2023/07/19 08:05:40;;;;;;;18.77;16.98;;;20.40;1.00;;;;;;5062449;28;20418;-69
2023/07/19 08:08:06;;;;;;;17.75;16.45;;;20.30;1.00;;;;;;5068410;28;20101;-69
2023/07/19 08:10:32;;;;;;;16.45;15.10;;;20.20;1.00;;;;;;5069490;28;20052;-69
2023/07/19 08:12:58;;;;;;;18.60;16.90;;;20.30;1.00;;;;;;5058216;28;20049;-69
2023/07/19 08:15:24;;;;;;;17.50;16.00;;;20.20;1.00;;;;;;5063249;28;20047;-69
2023/07/19 08:17:52;;;;;;;17.20;15.50;;;20.30;27.20;;;;;;5051434;28;20519;-69
2023/07/19 08:20:17;;;;;;;15.38;14.07;;;20.40;37.00;;;;;;5061286;28;20079;-69
2023/07/19 08:22:43;;;;;;;16.65;15.30;;;20.40;1.00;;;;;;5072279;28;20497;-69
2023/07/19 08:25:08;;;;;;;19.90;18.30;;;20.30;1.00;;;;;;5070607;28;20490;-69
2023/07/19 08:27:34;;;;;;;17.20;15.75;;;20.30;1.00;;;;;;5068612;28;20490;-69
2023/07/19 08:30:04;;;;;;;15.88;14.55;;;20.30;1.00;;;;;;5063827;28;20060;-69
2023/07/19 08:32:32;;;;;;;16.25;14.82;;;20.40;1.00;;;;;;5062922;28;20532;-69
2023/07/19 08:34:57;;;;;;;17.23;15.75;;;20.50;1.00;;;;;;5069458;28;20119;-69
2023/07/19 08:37:23;;;;;;;15.57;14.25;;;20.60;1.00;;;;;;5067165;28;20589;-69
2023/07/19 08:39:48;;;;;;;16.23;15.00;;;20.40;1.00;;;;;;5061560;28;20044;-69
2023/07/19 08:42:14;;;;;;;13.35;12.23;;;20.30;1.00;;;;;;5059201;28;20044;-69
2023/07/19 08:44:40;;;;;;;14.68;13.18;;;20.50;1.00;;;;;;5043243;28;20041;-69
2023/07/19 08:47:08;;;;;;;14.65;13.30;;;20.60;1.00;;;;;;5062585;28;20039;-69
2023/07/19 08:49:35;;;;;;;14.55;13.32;;;20.90;1.00;;;;;;5052682;28;20041;-69
2023/07/19 08:52:02;;;;;;;15.43;14.15;;;21.00;1.00;;;;;;5062073;28;20125;-69
2023/07/19 08:54:28;;;;;;;14.57;13.48;;;21.00;1.00;;;;;;5068586;28;20117;-69
2023/07/19 08:56:53;;;;;;;15.07;13.60;;;20.90;1.00;;;;;;5069790;28;20052;-69
2023/07/19 08:59:19;;;;;;;14.07;12.88;;;20.70;99.90;;;;;;5062547;28;20498;-69
2023/07/19 09:01:44;;;;;;;12.30;11.18;;;20.80;99.90;;;;;;5069316;28;20513;-69
2023/07/19 09:04:10;;;;;;;14.10;13.00;;;20.70;99.90;;;;;;5067705;28;21261;-69
2023/07/19 09:06:36;;;;;;;13.90;12.70;;;20.70;99.90;;;;;;5067776;28;20035;-69
2023/07/19 09:09:01;;;;;;;14.85;13.68;;;20.70;99.90;;;;;;5048583;28;20036;-69
2023/07/19 09:11:27;;;;;;;10.73;9.55;;;20.70;99.90;;;;;;5067725;28;20141;-69
2023/07/19 09:13:55;;;;;;;12.52;11.35;;;20.80;99.90;;;;;;5062470;28;20032;-69
2023/07/19 09:16:28;;;;;;;16.65;11.80;;;21.00;99.90;;;;;;5051139;28;20055;-69
2023/07/19 09:18:54;;;;;;;12.55;11.55;;;21.30;99.90;;;;;;5067654;28;20402;-69
2023/07/19 09:21:52;;;;;;;12.98;11.82;;;21.60;99.90;;;;;;5058073;28;20427;-69
2023/07/19 09:24:18;;;;;;;14.55;13.35;;;21.40;99.90;;;;;;5022494;28;20402;-69
2023/07/19 09:26:53;;;;;;;13.27;12.18;;;21.40;99.90;;;;;;5071402;28;20040;-69
2023/07/19 09:29:20;;;;;;;11.80;10.80;;;21.70;99.90;;;;;;5065948;28;20049;-69
2023/07/19 09:31:54;;;;;;;13.93;12.65;;;21.80;99.90;;;;;;5067930;28;20036;-69
2023/07/19 09:34:25;;;;;;;13.80;12.85;;;21.50;99.90;;;;;;5043265;28;20048;-69
2023/07/19 09:36:52;;;;;;;13.20;12.23;;;21.40;99.90;;;;;;5059996;28;20050;-69
2023/07/19 09:39:18;;;;;;;14.15;12.75;;;21.40;99.90;;;;;;5067392;28;20512;-69
2023/07/19 09:41:47;;;;;;;13.45;12.25;;;21.20;99.90;;;;;;5063505;28;20052;-69
2023/07/19 09:44:17;;;;;;;12.93;11.73;;;21.30;99.90;;;;;;5068789;28;21355;-69
2023/07/19 09:46:44;;;;;;;12.43;11.30;;;21.00;99.90;;;;;;5065899;28;20040;-70
2023/07/19 09:49:11;;;;;;;11.90;10.90;;;21.30;99.90;;;;;;5068500;28;20035;-69
2023/07/19 09:51:40;;;;;;;11.25;10.25;;;21.80;99.90;;;;;;5063467;28;20044;-70
2023/07/19 09:54:11;;;;;;;12.20;11.15;;;21.70;99.90;;;;;;5064020;28;20698;-69
2023/07/19 09:56:38;;;;;;;12.63;11.70;;;21.50;99.90;;;;;;5044974;28;20063;-69
2023/07/19 09:59:12;;;;;;;9.60;8.80;;;21.40;99.90;;;;;;5071113;28;20052;-69
2023/07/19 10:01:38;;;;;;;9.88;8.98;;;21.40;99.90;;;;;;5058394;28;20063;-69
2023/07/19 10:04:27;;;;;;;10.20;9.15;;;21.60;99.90;;;;;;5066869;28;20612;-69
2023/07/19 10:07:09;;;;;;;11.00;10.00;;;21.60;99.90;;;;;;5061993;28;20044;-70
2023/07/19 10:09:42;;;;;;;10.32;9.25;;;21.80;99.90;;;;;;5051618;28;20044;-70
2023/07/19 10:12:17;;;;;;;11.38;10.38;;;21.70;99.90;;;;;;5057735;28;20079;-70
2023/07/19 10:15:05;;;;;;;10.45;9.50;;;21.70;99.90;;;;;;5062459;28;20072;-70
2023/07/19 10:17:41;;;;;;;10.35;9.45;;;21.60;99.90;;;;;;5047985;28;20508;-70
2023/07/19 10:20:14;;;;;;;;;;;21.50;99.90;;;;;;5064167;28;20048;-70
2023/07/19 10:22:49;;;;;;;9.10;8.40;;;21.60;99.90;;;;;;5063444;28;19931;-70
2023/07/19 10:25:24;;;;;;;10.23;9.43;;;22.10;99.90;;;;;;5060420;28;20393;-70
2023/07/19 10:28:00;;;;;;;10.00;9.20;;;21.60;99.90;;;;;;5067640;28;20040;-70
2023/07/19 10:30:44;;;;;;;11.55;10.52;;;21.80;99.90;;;;;;5065348;28;20060;-70
2023/07/19 10:33:14;;;;;;;11.88;10.93;;;21.50;99.90;;;;;;5066937;28;20123;-70
2023/07/19 10:35:41;;;;;;;10.80;9.73;;;21.60;99.90;;;;;;5055190;28;20033;-70
2023/07/19 10:38:33;;;;;;;7.45;6.90;;;21.80;99.90;;;;;;5026165;28;20044;-70
2023/07/19 10:41:04;;;;;;;8.95;8.02;;;21.80;99.90;;;;;;5043075;28;20056;-70
2023/07/19 10:43:31;;;;;;;11.10;8.65;;;21.90;99.90;;;;;;5067195;28;20041;-69
2023/07/19 10:46:03;;;;;;;12.18;11.27;;;21.70;99.90;;;;;;5065534;28;20043;-70
2023/07/19 10:48:36;;;;;;;10.98;9.95;;;21.50;99.90;;;;;;5066473;28;20499;-70
2023/07/19 10:51:03;;;;;;;10.68;9.75;;;21.50;99.90;;;;;;5047597;28;20041;-70
2023/07/19 10:53:32;;;;;;;9.27;8.43;;;21.40;99.90;;;;;;5027893;28;20045;-70
2023/07/19 10:56:01;;;;;;;6.90;6.20;;;21.50;99.90;;;;;;5049329;28;20067;-70
2023/07/19 10:58:26;;;;;;;7.60;6.97;;;21.60;99.90;;;;;;5057769;28;20398;-70
2023/07/19 11:00:53;;;;;;;8.85;8.15;;;21.70;99.90;;;;;;5069622;28;20151;-70
2023/07/19 11:03:22;;;;;;;7.65;6.95;;;21.70;99.90;;;;;;5071482;28;20083;-70
2023/07/19 11:05:50;;;;;;;8.40;7.70;;;21.60;99.90;;;;;;5065816;28;20504;-70
2023/07/19 11:08:23;;;;;;;8.93;8.23;;;21.60;99.90;;;;;;5073542;28;20063;-70
2023/07/19 11:10:50;;;;;;;7.28;5.32;;;21.60;99.90;;;;;;5070462;28;20047;-70
2023/07/19 11:13:17;;;;;;;7.43;6.68;;;21.70;99.90;;;;;;5075738;28;20036;-71
2023/07/19 11:15:48;;;;;;;7.80;7.10;;;21.70;99.90;;;;;;5047324;28;20071;-71
2023/07/19 11:18:29;;;;;;;7.22;6.60;;;21.70;99.90;;;;;;5069552;28;20047;-71
2023/07/19 11:20:58;;;;;;;4.72;4.30;;;21.70;99.90;;;;;;5039469;28;20049;-71
2023/07/19 11:23:25;;;;;;;4.43;3.90;;;21.70;99.90;;;;;;5065156;28;20045;-71
2023/07/19 11:26:01;;;;;;;5.90;5.30;;;21.70;99.90;;;;;;5065263;28;20036;-71
2023/07/19 11:28:35;;;;;;;10.13;6.47;;;21.60;99.90;;;;;;5068264;28;20040;-71
2023/07/19 11:31:02;;;;;;;4.50;4.10;;;21.70;99.90;;;;;;5061069;28;20114;-71
2023/07/19 11:33:28;;;;;;;5.00;4.50;;;22.20;99.90;;;;;;5069259;28;20072;-72
2023/07/19 11:35:54;;;;;;;5.03;4.00;;;21.60;99.10;;;;;;5067765;28;20086;-71
2023/07/19 11:38:19;;;;;;;5.32;4.18;;;21.50;98.40;;;;;;5067224;28;20040;-71
2023/07/19 11:40:45;;;;;;;6.22;3.95;;;21.40;94.80;;;;;;5063544;28;20036;-71
2023/07/19 11:43:10;;;;;;;7.25;4.30;;;21.40;84.60;;;;;;5067792;28;20618;-71
2023/07/19 11:45:36;;;;;;;4.47;4.07;;;21.50;87.10;;;;;;5048997;28;20033;-71
2023/07/19 11:48:02;;;;;;;4.38;2.50;;;21.70;93.20;;;;;;5069972;28;20063;-71
2023/07/19 11:50:29;;;;;;;6.32;4.78;;;21.80;70.10;;;;;;5071590;28;20029;-72
2023/07/19 11:52:57;;;;;;;9.27;8.57;;;22.00;45.20;;;;;;5069728;28;20044;-72
2023/07/19 11:55:24;;;;;;;12.23;11.23;;;22.00;36.40;;;;;;5058634;28;20037;-72
2023/07/19 11:57:51;;;;;;;16.77;15.57;;;22.00;34.30;;;;;;5048572;28;20498;-71
2023/07/19 12:00:20;;;;;;;10.48;9.68;;;22.10;53.00;;;;;;5066407;28;20081;-71
2023/07/19 12:02:46;;;;;;;8.52;7.93;;;22.10;36.70;;;;;;5069851;28;20418;-71
2023/07/19 12:05:15;;;;;;;16.00;14.80;;;22.10;27.00;;;;;;5069191;28;20051;-71
2023/07/19 12:07:40;;;;;;;9.45;8.65;;;22.20;42.20;;;;;;5064212;28;20123;-71
2023/07/19 12:10:07;;;;;;;11.98;11.05;;;22.10;24.50;;;;;;5067936;28;20182;-71
2023/07/19 12:12:33;;;;;;;11.20;10.27;;;22.20;20.20;;;;;;5068394;28;20086;-71
2023/07/19 12:15:08;;;;;;;11.95;11.05;;;22.20;13.10;;;;;;5051225;28;20526;-71
2023/07/19 12:17:36;;;;;;;11.60;10.38;;;22.30;16.90;;;;;;5062418;28;20098;-71
2023/07/19 12:20:02;;;;;;;15.98;14.68;;;22.50;14.10;;;;;;5068715;28;20082;-71
2023/07/19 12:22:28;;;;;;;14.48;13.43;;;22.10;10.20;;;;;;5069245;28;20418;-72
2023/07/19 12:24:54;;;;;;;15.23;14.13;;;22.50;16.70;;;;;;5048265;28;20037;-71
2023/07/19 12:27:20;;;;;;;14.20;13.02;;;22.50;18.30;;;;;;5068235;28;20513;-72
2023/07/19 12:29:45;;;;;;;18.15;16.88;;;22.20;10.90;;;;;;5069159;28;20036;-71
2023/07/19 12:32:11;;;;;;;27.70;25.80;;;22.10;4.30;;;;;;5063730;28;20040;-71